createdAt,value
2019-02-19T00:02:15.924Z,67.70
2019-02-19T00:04:44.518Z,67.50
2019-02-19T00:07:13.077Z,67.30
2019-02-19T00:09:41.662Z,67.00
2019-02-19T00:12:10.312Z,66.80
2019-02-19T00:14:38.893Z,66.70
2019-02-19T00:17:07.488Z,67.00
2019-02-19T00:19:36.046Z,68.10
2019-02-19T00:22:05.973Z,69.10
2019-02-19T00:24:34.562Z,69.80
2019-02-19T00:27:03.184Z,70.70
2019-02-19T00:29:31.737Z,71.10
2019-02-19T00:32:00.622Z,71.30
2019-02-19T00:34:29.183Z,71.50
2019-02-19T00:36:57.834Z,72.70
2019-02-19T00:39:26.469Z,73.20
2019-02-19T00:41:55.095Z,74.50
2019-02-19T00:44:23.661Z,75.80
2019-02-19T00:46:52.211Z,77.10
2019-02-19T00:49:20.853Z,77.80
2019-02-19T00:51:49.414Z,77.90
2019-02-19T00:54:17.989Z,79.10
2019-02-19T00:56:46.548Z,77.90
2019-02-19T00:59:15.172Z,76.80
2019-02-19T01:01:43.738Z,74.50
2019-02-19T01:04:12.386Z,73.30
2019-02-19T01:06:40.945Z,72.70
2019-02-19T01:09:09.961Z,74.10
2019-02-19T01:11:38.590Z,75.70
2019-02-19T01:14:07.265Z,76.30
2019-02-19T01:16:36.585Z,76.20
2019-02-19T01:19:05.528Z,77.10
2019-02-19T01:21:34.100Z,76.70
2019-02-19T01:24:02.656Z,77.40
2019-02-19T01:26:31.233Z,77.60
2019-02-19T01:28:59.860Z,77.80
2019-02-19T01:31:28.460Z,77.70
2019-02-19T01:33:57.003Z,77.50
2019-02-19T01:36:25.587Z,76.70
2019-02-19T01:38:54.235Z,75.40
2019-02-19T01:41:23.673Z,74.80
2019-02-19T01:43:52.228Z,74.70
2019-02-19T01:46:20.834Z,75.40
2019-02-19T01:48:49.360Z,75.70
2019-02-19T01:51:17.920Z,75.40
2019-02-19T01:53:46.493Z,75.80
2019-02-19T01:56:15.044Z,75.90
2019-02-19T01:58:43.620Z,72.80
2019-02-19T02:01:12.180Z,71.60
2019-02-19T02:03:40.761Z,73.70
2019-02-19T02:06:09.317Z,76.10
2019-02-19T02:08:38.336Z,77.60
2019-02-19T02:11:06.958Z,79.70
2019-02-19T02:13:35.533Z,80.40
2019-02-19T02:16:04.088Z,80.30
2019-02-19T02:18:32.952Z,80.00
2019-02-19T02:21:01.500Z,78.90
2019-02-19T02:23:30.124Z,77.50
2019-02-19T02:25:58.705Z,75.50
2019-02-19T02:28:27.257Z,73.60
2019-02-19T02:30:55.832Z,72.80
2019-02-19T02:33:24.392Z,71.70
2019-02-19T02:35:52.976Z,71.00
2019-02-19T02:38:21.537Z,70.20
2019-02-19T02:40:50.680Z,69.10
2019-02-19T02:43:19.345Z,69.10
2019-02-19T02:45:53.552Z,68.30
2019-02-19T02:48:18.240Z,67.60
2019-02-19T02:50:46.897Z,67.50
2019-02-19T02:53:15.464Z,66.90
2019-02-19T02:55:44.029Z,67.30
2019-02-19T02:58:12.605Z,66.20
2019-02-19T03:00:41.470Z,66.10
2019-02-19T03:03:10.052Z,65.80
2019-02-19T03:05:40.249Z,65.70
2019-02-19T03:08:08.934Z,66.30
2019-02-19T03:10:37.497Z,65.10
2019-02-19T03:13:06.064Z,65.80
2019-02-19T03:15:34.648Z,65.10
2019-02-19T03:18:03.532Z,65.20
2019-02-19T03:20:32.194Z,65.20
2019-02-19T03:23:01.130Z,65.40
2019-02-19T03:25:29.684Z,65.50
2019-02-19T03:27:58.287Z,65.30
2019-02-19T03:30:26.865Z,64.60
2019-02-19T03:32:55.421Z,64.60
2019-02-19T03:35:23.988Z,65.70
2019-02-19T03:37:52.544Z,68.20
2019-02-19T03:40:21.120Z,69.70
2019-02-19T03:42:49.690Z,70.50
2019-02-19T03:45:18.256Z,71.50
2019-02-19T03:47:47.161Z,71.70
2019-02-19T03:50:16.017Z,71.60
2019-02-19T03:52:44.636Z,71.90
2019-02-19T03:55:13.197Z,69.80
2019-02-19T03:57:41.772Z,70.20
2019-02-19T04:00:10.659Z,72.80
2019-02-19T04:02:39.308Z,75.20
2019-02-19T04:05:08.104Z,75.90
2019-02-19T04:07:36.680Z,76.50
2019-02-19T04:10:07.678Z,76.50
2019-02-19T04:12:36.260Z,76.50
2019-02-19T04:15:06.603Z,76.50
2019-02-19T04:17:35.455Z,76.90
2019-02-19T04:20:05.049Z,76.50
2019-02-19T04:22:33.608Z,75.80
2019-02-19T04:25:02.189Z,74.90
2019-02-19T04:27:30.752Z,74.20
2019-02-19T04:29:59.332Z,73.50
2019-02-19T04:32:28.012Z,72.90
2019-02-19T04:34:56.647Z,72.10
2019-02-19T04:37:25.187Z,71.70
2019-02-19T04:39:53.788Z,71.80
2019-02-19T04:42:22.365Z,71.30
2019-02-19T04:44:50.912Z,71.80
2019-02-19T04:47:19.635Z,72.80
2019-02-19T04:49:48.188Z,72.60
2019-02-19T04:52:16.756Z,72.60
2019-02-19T04:54:45.654Z,72.80
2019-02-19T04:57:14.300Z,72.60
2019-02-19T04:59:43.124Z,72.30
2019-02-19T05:02:11.882Z,72.20
2019-02-19T05:04:40.598Z,72.50
2019-02-19T05:07:10.194Z,72.80
2019-02-19T05:09:38.823Z,73.10
2019-02-19T05:12:07.400Z,73.20
2019-02-19T05:14:35.952Z,72.60
2019-02-19T05:17:04.578Z,73.10
2019-02-19T05:19:33.154Z,72.80
2019-02-19T05:22:02.137Z,73.50
2019-02-19T05:24:32.842Z,72.50
2019-02-19T05:27:01.393Z,72.70
2019-02-19T05:29:30.011Z,72.70
2019-02-19T05:31:58.545Z,72.80
2019-02-19T05:34:27.156Z,73.80
2019-02-19T05:36:55.712Z,74.50
2019-02-19T05:39:24.271Z,74.90
2019-02-19T05:41:52.842Z,75.20
2019-02-19T05:44:21.395Z,75.20
2019-02-19T05:46:50.279Z,75.60
2019-02-19T05:49:18.841Z,74.70
2019-02-19T05:51:47.405Z,75.40
2019-02-19T05:54:16.006Z,75.60
2019-02-19T05:56:44.577Z,75.90
2019-02-19T05:59:13.133Z,77.10
2019-02-19T06:01:42.061Z,77.50
2019-02-19T06:04:10.617Z,77.60
2019-02-19T06:06:39.219Z,77.40
2019-02-19T06:09:07.781Z,77.50
2019-02-19T06:11:36.340Z,77.90
2019-02-19T06:14:04.988Z,79.40
2019-02-19T06:16:33.541Z,79.30
2019-02-19T06:19:02.426Z,79.70
2019-02-19T06:21:30.982Z,79.60
2019-02-19T06:23:59.554Z,80.20
2019-02-19T06:26:28.412Z,80.80
2019-02-19T06:28:57.880Z,82.10
2019-02-19T06:31:26.520Z,83.20
2019-02-19T06:33:55.092Z,84.60
2019-02-19T06:36:23.800Z,84.70
2019-02-19T06:38:52.746Z,84.10
2019-02-19T06:41:21.291Z,84.10
2019-02-19T06:43:49.992Z,85.20
2019-02-19T06:46:23.798Z,86.10
2019-02-19T06:48:52.370Z,86.60
2019-02-19T06:51:20.941Z,86.10
2019-02-19T06:53:49.516Z,84.20
2019-02-19T06:56:18.093Z,81.90
2019-02-19T06:58:46.647Z,79.70
2019-02-19T07:01:16.852Z,77.80
2019-02-19T07:03:47.050Z,75.40
2019-02-19T07:06:15.617Z,72.90
2019-02-19T07:08:44.172Z,71.80
2019-02-19T07:11:12.844Z,74.10
2019-02-19T07:13:41.508Z,74.80
2019-02-19T07:16:10.064Z,73.40
2019-02-19T07:18:38.638Z,73.20
2019-02-19T07:21:07.196Z,73.20
2019-02-19T07:23:36.096Z,72.70
2019-02-19T07:26:05.078Z,69.90
2019-02-19T07:28:33.717Z,67.30
2019-02-19T07:31:02.270Z,63.60
2019-02-19T07:33:30.870Z,63.60
2019-02-19T07:35:59.424Z,64.40
2019-02-19T07:38:28.078Z,65.30
2019-02-19T07:40:56.655Z,66.80
2019-02-19T07:43:25.205Z,68.80
2019-02-19T07:45:54.157Z,67.20
2019-02-19T07:48:22.757Z,68.10
2019-02-19T07:50:51.437Z,66.00
2019-02-19T07:53:20.000Z,67.70
2019-02-19T07:55:48.549Z,69.10
2019-02-19T07:58:17.127Z,69.00
2019-02-19T08:00:45.675Z,71.00
2019-02-19T08:03:14.264Z,71.80
2019-02-19T08:05:42.817Z,70.70
2019-02-19T08:08:11.388Z,71.10
2019-02-19T08:10:40.305Z,68.40
2019-02-19T08:13:08.873Z,62.90
2019-02-19T08:15:37.439Z,57.20
2019-02-19T08:18:06.028Z,54.70
2019-02-19T08:20:34.588Z,51.60
2019-02-19T08:23:03.144Z,49.80
2019-02-19T08:25:31.724Z,46.10
2019-02-19T08:28:00.272Z,42.40
2019-02-19T08:30:28.852Z,40.70
2019-02-19T08:32:57.482Z,38.70
2019-02-19T08:35:26.082Z,36.70
2019-02-19T08:37:54.642Z,37.40
2019-02-19T08:40:23.231Z,38.10
2019-02-19T08:42:51.846Z,38.10
2019-02-19T08:45:20.427Z,38.60
2019-02-19T08:47:49.101Z,38.10
2019-02-19T08:50:17.657Z,36.90
2019-02-19T08:52:46.384Z,36.20
2019-02-19T08:55:14.948Z,34.80
2019-02-19T08:57:43.922Z,34.60
2019-02-19T09:00:12.621Z,35.30
2019-02-19T09:02:41.209Z,33.90
2019-02-19T09:05:09.843Z,32.20
2019-02-19T09:07:38.416Z,30.00
2019-02-19T09:10:10.212Z,28.80
2019-02-19T09:12:38.797Z,28.40
2019-02-19T09:15:11.187Z,27.40
2019-02-19T09:17:40.478Z,27.70
2019-02-19T09:20:10.194Z,25.90
2019-02-19T09:22:39.152Z,27.20
2019-02-19T09:25:08.642Z,27.70
2019-02-19T09:27:37.641Z,27.10
2019-02-19T09:30:09.365Z,26.40
2019-02-19T09:32:37.924Z,25.00
2019-02-19T09:35:07.649Z,24.80
2019-02-19T09:37:36.209Z,26.30
2019-02-19T09:40:07.064Z,27.10
2019-02-19T09:42:35.908Z,28.50
2019-02-19T09:45:06.623Z,29.80
2019-02-19T09:47:35.221Z,30.40
2019-02-19T09:50:04.524Z,32.20
2019-02-19T09:52:33.108Z,33.80
2019-02-19T09:55:01.693Z,35.90
2019-02-19T09:57:30.390Z,37.00
2019-02-19T09:59:58.969Z,38.40
2019-02-19T10:02:27.545Z,40.40
2019-02-19T10:04:56.174Z,41.40
2019-02-19T10:07:24.754Z,42.80
2019-02-19T10:09:53.325Z,43.40
2019-02-19T10:12:21.904Z,44.20
2019-02-19T10:14:50.579Z,44.60
2019-02-19T10:17:19.151Z,45.30
2019-02-19T10:19:47.879Z,45.60
2019-02-19T10:22:16.436Z,45.60
2019-02-19T10:24:45.108Z,45.90
2019-02-19T10:27:13.668Z,45.60
2019-02-19T10:29:42.616Z,45.60
2019-02-19T10:32:11.186Z,45.20
2019-02-19T10:34:39.765Z,45.80
2019-02-19T10:37:08.326Z,45.00
2019-02-19T10:39:36.943Z,45.00
2019-02-19T10:42:05.486Z,44.50
2019-02-19T10:44:34.137Z,41.60
2019-02-19T10:47:02.746Z,40.10
2019-02-19T10:49:31.377Z,34.70
2019-02-19T10:51:59.944Z,32.30
2019-02-19T10:54:28.524Z,31.20
2019-02-19T10:56:57.528Z,30.50
2019-02-19T10:59:26.141Z,30.20
2019-02-19T11:01:54.824Z,30.90
2019-02-19T11:04:23.444Z,32.60
2019-02-19T11:06:52.025Z,33.60
2019-02-19T11:09:20.593Z,34.50
2019-02-19T11:11:49.151Z,34.70
2019-02-19T11:14:17.790Z,34.90
2019-02-19T11:16:46.437Z,35.10
2019-02-19T11:19:15.012Z,34.20
2019-02-19T11:21:43.568Z,31.40
2019-02-19T11:24:12.468Z,29.50
2019-02-19T11:26:41.020Z,27.40
2019-02-19T11:29:09.696Z,26.20
2019-02-19T11:31:38.253Z,26.10
2019-02-19T11:34:06.809Z,25.40
2019-02-19T11:36:35.452Z,25.50
2019-02-19T11:39:05.053Z,26.00
2019-02-19T11:41:33.628Z,27.20
2019-02-19T11:44:02.190Z,28.30
2019-02-19T11:46:31.053Z,29.20
2019-02-19T11:48:59.786Z,29.40
2019-02-19T11:51:28.731Z,31.70
2019-02-19T11:53:57.413Z,32.90
2019-02-19T11:56:25.972Z,34.00
2019-02-19T11:58:54.652Z,34.80
2019-02-19T12:01:23.220Z,36.40
2019-02-19T12:03:52.173Z,37.00
2019-02-19T12:06:20.729Z,38.30
2019-02-19T12:08:49.304Z,38.60
2019-02-19T12:11:17.870Z,39.30
2019-02-19T12:13:46.463Z,39.80
2019-02-19T12:16:15.048Z,39.90
2019-02-19T12:18:46.177Z,40.20
2019-02-19T12:21:13.941Z,40.90
2019-02-19T12:23:42.573Z,42.10
2019-02-19T12:26:11.152Z,42.60
2019-02-19T12:28:39.716Z,42.90
2019-02-19T12:31:08.365Z,42.10
2019-02-19T12:33:36.920Z,43.00
2019-02-19T12:36:05.504Z,42.50
2019-02-19T12:38:34.115Z,41.90
2019-02-19T12:41:02.710Z,42.20
2019-02-19T12:43:31.276Z,43.00
2019-02-19T12:45:59.872Z,43.80
2019-02-19T12:48:28.453Z,43.70
2019-02-19T12:50:57.009Z,43.30
2019-02-19T12:53:25.589Z,43.90
2019-02-19T12:55:54.494Z,44.50
2019-02-19T12:58:23.056Z,44.70
2019-02-19T13:00:51.689Z,44.70
2019-02-19T13:03:20.314Z,45.50
2019-02-19T13:09:30.267Z,46.60
2019-02-19T13:11:58.824Z,48.50
2019-02-19T13:14:27.403Z,49.10
2019-02-19T13:16:56.264Z,48.80
2019-02-19T13:20:13.486Z,48.90
2019-02-19T13:22:42.116Z,48.80
2019-02-19T13:25:12.041Z,49.00
2019-02-19T13:27:40.598Z,49.40
2019-02-19T13:30:17.197Z,49.80
2019-02-19T13:32:45.756Z,50.00
2019-02-19T13:35:14.554Z,51.00
2019-02-19T13:37:43.131Z,51.90
2019-02-19T13:40:19.412Z,52.60
2019-02-19T13:42:48.163Z,56.90
2019-02-19T13:45:16.967Z,55.10
2019-02-19T13:47:45.552Z,55.00
2019-02-19T13:50:31.723Z,53.90
2019-02-19T13:53:18.432Z,54.40
2019-02-19T13:55:54.905Z,54.90
2019-02-19T13:58:23.491Z,55.30
2019-02-19T14:00:52.047Z,55.80
2019-02-19T14:03:20.668Z,56.60
2019-02-19T14:05:49.340Z,57.60
2019-02-19T14:08:17.920Z,58.20
2019-02-19T14:10:46.619Z,58.60
2019-02-19T14:13:15.235Z,59.30
2019-02-19T14:15:45.409Z,59.50
2019-02-19T14:18:15.609Z,59.80
2019-02-19T14:20:51.405Z,60.00
2019-02-19T14:23:36.957Z,60.60
2019-02-19T14:26:25.393Z,61.30
2019-02-19T14:28:55.623Z,61.90
2019-02-19T14:31:31.809Z,62.40
2019-02-19T14:34:14.453Z,62.80
2019-02-19T14:36:44.728Z,63.20
2019-02-19T14:39:14.947Z,63.90
2019-02-19T14:41:45.150Z,64.70
2019-02-19T14:44:15.408Z,65.00
2019-02-19T14:47:02.133Z,65.60
2019-02-19T14:49:37.510Z,66.80
2019-02-19T14:52:25.032Z,67.30
2019-02-19T14:54:55.254Z,67.60
2019-02-19T14:57:37.741Z,68.40
2019-02-19T15:00:25.128Z,69.90
2019-02-19T15:03:00.970Z,70.00
2019-02-19T15:05:49.460Z,69.40
2019-02-19T15:08:25.396Z,70.20
2019-02-19T15:10:58.561Z,70.90
2019-02-19T15:13:43.500Z,71.00
2019-02-19T15:16:13.725Z,71.70
2019-02-19T15:18:52.567Z,72.20
2019-02-19T15:21:31.748Z,72.60
2019-02-19T15:24:01.954Z,72.50
2019-02-19T15:26:35.079Z,72.20
2019-02-19T15:29:08.172Z,72.60
2019-02-19T15:31:41.572Z,72.30
2019-02-19T15:34:27.917Z,72.30
2019-02-19T15:36:58.139Z,72.40
2019-02-19T15:39:37.360Z,72.50
2019-02-19T15:42:23.615Z,72.30
2019-02-19T15:44:53.811Z,72.40
2019-02-19T15:47:24.039Z,73.00
2019-02-19T15:50:09.672Z,73.50
2019-02-19T15:52:58.004Z,73.30
2019-02-19T15:55:28.208Z,73.20
2019-02-19T15:58:14.587Z,74.00
2019-02-19T16:00:47.624Z,74.40
2019-02-19T16:03:17.863Z,74.90
2019-02-19T16:05:48.046Z,74.60
2019-02-19T16:08:21.232Z,75.00
2019-02-19T16:11:03.626Z,75.30
2019-02-19T16:13:40.336Z,75.70
2019-02-19T16:16:19.681Z,76.00
2019-02-19T16:18:52.973Z,75.90
2019-02-19T16:21:26.760Z,76.50
2019-02-19T16:23:59.961Z,76.60
2019-02-19T16:26:46.783Z,76.90
2019-02-19T16:29:19.804Z,76.80
2019-02-19T16:32:06.791Z,77.10
2019-02-19T16:34:37.051Z,77.50
2019-02-19T16:37:10.238Z,78.50
2019-02-19T16:39:43.433Z,78.10
2019-02-19T16:42:16.489Z,78.00
2019-02-19T16:44:46.691Z,78.50
2019-02-19T16:47:23.292Z,79.00
2019-02-19T16:49:53.729Z,79.40
2019-02-19T16:52:32.921Z,80.20
2019-02-19T16:55:21.148Z,82.40
2019-02-19T16:57:57.464Z,81.10
2019-02-19T17:00:33.653Z,81.00
2019-02-19T17:03:03.949Z,82.60
2019-02-19T17:05:34.202Z,82.20
2019-02-19T17:08:12.891Z,82.50
2019-02-19T17:10:49.268Z,84.80
2019-02-19T17:13:36.237Z,84.40
2019-02-19T17:16:18.541Z,83.60
2019-02-19T17:18:51.868Z,83.80
2019-02-19T17:21:22.415Z,83.90
2019-02-19T17:24:11.344Z,83.90
2019-02-19T17:26:44.100Z,84.40
2019-02-19T17:29:22.920Z,84.60
2019-02-19T17:31:53.485Z,85.70
2019-02-19T17:34:24.112Z,84.60
2019-02-19T17:37:03.625Z,85.30
2019-02-19T17:39:36.835Z,86.00
2019-02-19T17:42:09.756Z,85.90
2019-02-19T17:44:56.476Z,87.50
2019-02-19T17:47:32.683Z,86.60
2019-02-19T17:50:15.192Z,87.20
2019-02-19T17:52:54.711Z,85.90
2019-02-19T17:55:30.998Z,87.50
2019-02-19T17:58:09.815Z,86.70
2019-02-19T18:00:45.776Z,86.30
2019-02-19T18:03:15.979Z,86.90
2019-02-19T18:05:46.205Z,87.50
2019-02-19T18:08:33.092Z,87.00
2019-02-19T18:11:19.874Z,88.50
2019-02-19T18:13:50.053Z,88.40
2019-02-19T18:16:23.254Z,88.50
2019-02-19T18:18:52.337Z,89.10
2019-02-19T18:21:20.869Z,88.80
2019-02-19T18:23:49.428Z,89.10
2019-02-19T18:26:18.055Z,88.60
2019-02-19T18:28:46.632Z,90.20
2019-02-19T18:31:15.261Z,89.00
2019-02-19T18:33:43.840Z,88.80
2019-02-19T18:36:12.960Z,88.90
2019-02-19T18:38:41.552Z,89.70
2019-02-19T18:41:10.112Z,90.40
2019-02-19T18:43:39.347Z,89.00
2019-02-19T18:46:07.903Z,89.70
2019-02-19T18:48:36.457Z,88.50
2019-02-19T18:51:05.104Z,89.70
2019-02-19T18:53:33.664Z,89.30
2019-02-19T18:56:02.597Z,90.00
2019-02-19T18:58:31.239Z,89.80
2019-02-19T19:00:59.983Z,89.10
2019-02-19T19:03:28.557Z,87.90
2019-02-19T19:05:57.385Z,87.70
2019-02-19T19:08:25.952Z,87.90
2019-02-19T19:10:54.515Z,88.20
2019-02-19T19:13:23.192Z,88.80
2019-02-19T19:15:51.801Z,89.10
2019-02-19T19:18:20.359Z,89.30
2019-02-19T19:20:48.912Z,89.50
2019-02-19T19:23:17.489Z,90.20
2019-02-19T19:25:46.416Z,89.90
2019-02-19T19:28:14.995Z,90.00
2019-02-19T19:30:43.561Z,89.70
2019-02-19T19:33:12.452Z,90.20
2019-02-19T19:35:41.000Z,90.00
2019-02-19T19:38:09.648Z,90.20
2019-02-19T19:40:38.539Z,89.60
2019-02-19T19:43:08.317Z,89.30
2019-02-19T19:45:36.881Z,90.20
2019-02-19T19:48:05.439Z,90.40
2019-02-19T19:50:34.009Z,90.70
2019-02-19T19:53:02.591Z,90.50
2019-02-19T19:55:31.173Z,90.10
2019-02-19T19:57:59.732Z,90.60
2019-02-19T20:00:28.315Z,90.50
2019-02-19T20:02:57.156Z,90.30
2019-02-19T20:05:25.753Z,90.40
2019-02-19T20:07:54.303Z,90.40
2019-02-19T20:10:22.916Z,90.60
2019-02-19T20:12:51.484Z,90.20
2019-02-19T20:15:20.145Z,90.70
2019-02-19T20:17:48.705Z,90.70
2019-02-19T20:20:17.701Z,90.20
2019-02-19T20:22:46.305Z,90.90
2019-02-19T20:25:14.924Z,90.30
2019-02-19T20:27:43.613Z,90.10
2019-02-19T20:30:15.968Z,90.00
2019-02-19T20:32:44.681Z,90.10
2019-02-19T20:35:13.240Z,90.30
2019-02-19T20:37:41.832Z,90.60
2019-02-19T20:40:11.833Z,90.20
2019-02-19T20:42:40.821Z,90.00
2019-02-19T20:45:11.581Z,90.10
2019-02-19T20:47:40.165Z,90.20
2019-02-19T20:50:11.538Z,90.30
2019-02-19T20:52:40.201Z,90.60
2019-02-19T20:55:10.698Z,90.90
2019-02-19T20:57:39.253Z,90.70
2019-02-19T21:00:17.853Z,90.80
2019-02-19T21:02:46.412Z,90.80
2019-02-19T21:05:15.125Z,90.90
2019-02-19T21:07:43.750Z,90.80
2019-02-19T21:10:16.901Z,90.80
2019-02-19T21:12:45.547Z,90.50
2019-02-19T21:15:14.648Z,90.40
2019-02-19T21:17:43.306Z,90.70
2019-02-19T21:20:12.543Z,90.90
2019-02-19T21:22:41.105Z,90.70
2019-02-19T21:25:11.006Z,91.10
2019-02-19T21:27:42.724Z,90.90
2019-02-19T21:30:13.522Z,90.90
2019-02-19T21:32:42.361Z,91.30
2019-02-19T21:35:11.100Z,90.70
2019-02-19T21:37:39.708Z,90.20
2019-02-19T21:40:13.133Z,90.50
2019-02-19T21:42:41.805Z,90.60
2019-02-19T21:45:12.113Z,90.40
2019-02-19T21:47:40.682Z,90.50
2019-02-19T21:50:11.350Z,90.00
2019-02-19T21:52:40.232Z,90.20
2019-02-19T21:55:11.008Z,90.50
2019-02-19T21:57:39.652Z,90.80
2019-02-19T22:00:20.904Z,90.40
2019-02-19T22:02:49.548Z,90.10
2019-02-19T22:05:18.173Z,90.30
2019-02-19T22:07:46.744Z,90.50
2019-02-19T22:10:15.642Z,90.20
2019-02-19T22:12:44.227Z,90.60
2019-02-19T22:15:13.908Z,90.10
2019-02-19T22:17:42.500Z,89.50
2019-02-19T22:20:20.672Z,89.30
2019-02-19T22:22:49.560Z,90.10
2019-02-19T22:25:18.116Z,89.30
2019-02-19T22:27:46.672Z,90.10
2019-02-19T22:30:15.583Z,89.70
2019-02-19T22:32:44.168Z,89.80
2019-02-19T22:35:12.747Z,90.20
2019-02-19T22:37:41.641Z,89.90
2019-02-19T22:40:10.280Z,89.50
2019-02-19T22:42:38.835Z,89.50
2019-02-19T22:45:09.349Z,90.10
2019-02-19T22:47:38.230Z,90.30
2019-02-19T22:50:08.948Z,90.50
2019-02-19T22:52:37.618Z,91.00
2019-02-19T22:55:18.799Z,91.30
2019-02-19T22:57:47.421Z,91.30
2019-02-19T23:00:48.000Z,91.30
2019-02-19T23:03:18.263Z,91.90
2019-02-19T23:05:46.987Z,91.70
2019-02-19T23:08:15.559Z,91.70
2019-02-19T23:10:44.115Z,91.90
2019-02-19T23:13:12.748Z,93.00
2019-02-19T23:15:41.349Z,93.10
2019-02-19T23:18:09.885Z,93.20
2019-02-19T23:20:38.437Z,93.70
2019-02-19T23:23:07.110Z,93.20
2019-02-19T23:25:35.632Z,93.20
2019-02-19T23:28:04.265Z,93.40
2019-02-19T23:30:33.719Z,93.20
2019-02-19T23:33:02.685Z,92.60
2019-02-19T23:35:33.214Z,92.50
2019-02-19T23:38:01.809Z,92.90
2019-02-19T23:40:30.363Z,93.70
2019-02-19T23:42:59.029Z,93.70
2019-02-19T23:45:27.619Z,94.10
2019-02-19T23:47:56.176Z,94.30
2019-02-19T23:50:24.752Z,94.60
2019-02-19T23:52:53.309Z,94.90
2019-02-19T23:55:21.882Z,94.90
2019-02-19T23:57:50.551Z,94.60
